sensor_id;sensor_type;location;lat;lon;timestamp;temperature;humidity
1179;DHT22;578;48.408;10.004;2022-08-19T00:01:19;17.50;99.90
1179;DHT22;578;48.408;10.004;2022-08-19T00:03:46;17.40;99.90
1179;DHT22;578;48.408;10.004;2022-08-19T00:06:13;17.40;99.90
1179;DHT22;578;48.408;10.004;2022-08-19T00:08:40;17.50;99.90
1179;DHT22;578;48.408;10.004;2022-08-19T00:11:07;17.40;99.90
1179;DHT22;578;48.408;10.004;2022-08-19T00:13:35;17.40;99.90
1179;DHT22;578;48.408;10.004;2022-08-19T00:16:04;17.30;99.90
1179;DHT22;578;48.408;10.004;2022-08-19T00:18:31;17.40;99.90
1179;DHT22;578;48.408;10.004;2022-08-19T00:20:58;17.40;99.90
1179;DHT22;578;48.408;10.004;2022-08-19T00:23:25;17.40;99.90
1179;DHT22;578;48.408;10.004;2022-08-19T00:25:53;17.40;99.90
1179;DHT22;578;48.408;10.004;2022-08-19T00:28:20;17.30;99.90
1179;DHT22;578;48.408;10.004;2022-08-19T00:30:48;17.30;99.90
1179;DHT22;578;48.408;10.004;2022-08-19T00:33:17;17.30;99.90
1179;DHT22;578;48.408;10.004;2022-08-19T00:35:43;17.30;99.90
1179;DHT22;578;48.408;10.004;2022-08-19T00:38:10;17.20;99.90
1179;DHT22;578;48.408;10.004;2022-08-19T00:40:37;17.30;99.90
1179;DHT22;578;48.408;10.004;2022-08-19T00:43:08;17.20;99.90
1179;DHT22;578;48.408;10.004;2022-08-19T00:45:35;17.20;99.90
1179;DHT22;578;48.408;10.004;2022-08-19T00:48:04;17.20;99.90
1179;DHT22;578;48.408;10.004;2022-08-19T00:50:31;17.20;99.90
1179;DHT22;578;48.408;10.004;2022-08-19T00:52:58;17.10;99.90
1179;DHT22;578;48.408;10.004;2022-08-19T00:55:26;17.20;99.90
1179;DHT22;578;48.408;10.004;2022-08-19T00:58:05;17.20;99.90
1179;DHT22;578;48.408;10.004;2022-08-19T01:00:33;17.20;99.90
1179;DHT22;578;48.408;10.004;2022-08-19T01:03:05;17.10;99.90
1179;DHT22;578;48.408;10.004;2022-08-19T01:05:32;17.10;99.90
1179;DHT22;578;48.408;10.004;2022-08-19T01:08:02;17.20;99.90
1179;DHT22;578;48.408;10.004;2022-08-19T01:10:31;17.10;99.90
1179;DHT22;578;48.408;10.004;2022-08-19T01:12:59;17.20;99.90
1179;DHT22;578;48.408;10.004;2022-08-19T01:15:39;17.20;99.90
1179;DHT22;578;48.408;10.004;2022-08-19T01:18:11;17.10;99.90
1179;DHT22;578;48.408;10.004;2022-08-19T01:20:39;17.10;99.90
1179;DHT22;578;48.408;10.004;2022-08-19T01:23:08;17.10;99.90
1179;DHT22;578;48.408;10.004;2022-08-19T01:25:39;17.10;99.90
1179;DHT22;578;48.408;10.004;2022-08-19T01:28:14;17.20;99.90
1179;DHT22;578;48.408;10.004;2022-08-19T01:30:41;17.20;99.90
1179;DHT22;578;48.408;10.004;2022-08-19T01:33:09;17.20;99.90
1179;DHT22;578;48.408;10.004;2022-08-19T01:35:36;17.20;99.90
1179;DHT22;578;48.408;10.004;2022-08-19T01:38:06;17.10;99.90
1179;DHT22;578;48.408;10.004;2022-08-19T01:40:37;17.20;99.90
1179;DHT22;578;48.408;10.004;2022-08-19T01:43:07;17.20;99.90
1179;DHT22;578;48.408;10.004;2022-08-19T01:45:35;17.20;99.90
1179;DHT22;578;48.408;10.004;2022-08-19T01:48:03;17.10;99.90
1179;DHT22;578;48.408;10.004;2022-08-19T01:50:31;17.20;99.90
1179;DHT22;578;48.408;10.004;2022-08-19T01:52:58;17.10;99.90
1179;DHT22;578;48.408;10.004;2022-08-19T01:55:25;17.20;99.90
1179;DHT22;578;48.408;10.004;2022-08-19T01:57:55;17.20;99.90
1179;DHT22;578;48.408;10.004;2022-08-19T02:00:26;17.20;99.90
1179;DHT22;578;48.408;10.004;2022-08-19T02:02:53;17.10;99.90
1179;DHT22;578;48.408;10.004;2022-08-19T02:05:20;17.00;99.90
1179;DHT22;578;48.408;10.004;2022-08-19T02:07:48;17.00;99.90
1179;DHT22;578;48.408;10.004;2022-08-19T02:10:20;17.00;99.90
1179;DHT22;578;48.408;10.004;2022-08-19T02:12:47;17.10;99.90
1179;DHT22;578;48.408;10.004;2022-08-19T02:15:16;17.10;99.90
1179;DHT22;578;48.408;10.004;2022-08-19T02:17:44;17.10;99.90
1179;DHT22;578;48.408;10.004;2022-08-19T02:20:11;17.10;99.90
1179;DHT22;578;48.408;10.004;2022-08-19T02:22:38;17.10;99.90
1179;DHT22;578;48.408;10.004;2022-08-19T02:25:07;17.10;99.90
1179;DHT22;578;48.408;10.004;2022-08-19T02:27:34;17.00;99.90
1179;DHT22;578;48.408;10.004;2022-08-19T02:30:01;17.00;99.90
1179;DHT22;578;48.408;10.004;2022-08-19T02:32:29;17.00;99.90
1179;DHT22;578;48.408;10.004;2022-08-19T02:34:57;16.90;99.90
1179;DHT22;578;48.408;10.004;2022-08-19T02:37:24;16.90;99.90
1179;DHT22;578;48.408;10.004;2022-08-19T02:40:09;16.90;99.90
1179;DHT22;578;48.408;10.004;2022-08-19T02:42:36;16.90;99.90
1179;DHT22;578;48.408;10.004;2022-08-19T02:45:03;16.90;99.90
1179;DHT22;578;48.408;10.004;2022-08-19T02:47:32;17.00;99.90
1179;DHT22;578;48.408;10.004;2022-08-19T02:50:00;16.90;99.90
1179;DHT22;578;48.408;10.004;2022-08-19T02:52:27;16.90;99.90
1179;DHT22;578;48.408;10.004;2022-08-19T02:54:54;17.00;99.90
1179;DHT22;578;48.408;10.004;2022-08-19T02:57:23;16.90;99.90
1179;DHT22;578;48.408;10.004;2022-08-19T02:59:50;16.90;99.90
1179;DHT22;578;48.408;10.004;2022-08-19T03:02:16;16.90;99.90
1179;DHT22;578;48.408;10.004;2022-08-19T03:04:44;17.00;99.90
1179;DHT22;578;48.408;10.004;2022-08-19T03:07:14;16.90;99.90
1179;DHT22;578;48.408;10.004;2022-08-19T03:09:41;16.90;99.90
1179;DHT22;578;48.408;10.004;2022-08-19T03:12:09;17.00;99.90
1179;DHT22;578;48.408;10.004;2022-08-19T03:14:36;16.90;99.90
1179;DHT22;578;48.408;10.004;2022-08-19T03:17:04;16.90;99.90
1179;DHT22;578;48.408;10.004;2022-08-19T03:19:31;16.90;99.90
1179;DHT22;578;48.408;10.004;2022-08-19T03:21:59;16.90;99.90
1179;DHT22;578;48.408;10.004;2022-08-19T03:24:26;16.90;99.90
1179;DHT22;578;48.408;10.004;2022-08-19T03:26:54;16.90;99.90
1179;DHT22;578;48.408;10.004;2022-08-19T03:29:23;16.90;99.90
1179;DHT22;578;48.408;10.004;2022-08-19T03:31:50;17.00;99.90
1179;DHT22;578;48.408;10.004;2022-08-19T03:34:19;17.00;99.90
1179;DHT22;578;48.408;10.004;2022-08-19T03:36:46;16.80;99.90
1179;DHT22;578;48.408;10.004;2022-08-19T03:39:15;16.90;99.90
1179;DHT22;578;48.408;10.004;2022-08-19T03:41:44;16.90;99.90
1179;DHT22;578;48.408;10.004;2022-08-19T03:44:12;16.90;99.90
1179;DHT22;578;48.408;10.004;2022-08-19T03:46:39;16.80;99.90
1179;DHT22;578;48.408;10.004;2022-08-19T03:49:06;16.90;99.90
1179;DHT22;578;48.408;10.004;2022-08-19T03:51:36;16.80;99.90
1179;DHT22;578;48.408;10.004;2022-08-19T03:54:06;16.80;99.90
1179;DHT22;578;48.408;10.004;2022-08-19T03:56:37;16.80;99.90
1179;DHT22;578;48.408;10.004;2022-08-19T03:59:06;16.80;99.90
1179;DHT22;578;48.408;10.004;2022-08-19T04:01:34;16.80;99.90
1179;DHT22;578;48.408;10.004;2022-08-19T04:04:02;16.80;99.90
1179;DHT22;578;48.408;10.004;2022-08-19T04:06:30;16.80;99.90
1179;DHT22;578;48.408;10.004;2022-08-19T04:08:58;16.80;99.90
1179;DHT22;578;48.408;10.004;2022-08-19T04:11:29;16.80;99.90
1179;DHT22;578;48.408;10.004;2022-08-19T04:13:58;16.70;99.90
1179;DHT22;578;48.408;10.004;2022-08-19T04:16:27;16.80;99.90
1179;DHT22;578;48.408;10.004;2022-08-19T04:18:55;16.80;99.90
1179;DHT22;578;48.408;10.004;2022-08-19T04:21:24;16.80;99.90
1179;DHT22;578;48.408;10.004;2022-08-19T04:23:52;16.80;99.90
1179;DHT22;578;48.408;10.004;2022-08-19T04:26:23;16.80;99.90
1179;DHT22;578;48.408;10.004;2022-08-19T04:28:50;16.80;99.90
1179;DHT22;578;48.408;10.004;2022-08-19T04:31:20;16.70;99.90
1179;DHT22;578;48.408;10.004;2022-08-19T04:33:47;16.70;99.90
1179;DHT22;578;48.408;10.004;2022-08-19T04:36:19;16.70;99.90
1179;DHT22;578;48.408;10.004;2022-08-19T04:38:47;16.70;99.90
1179;DHT22;578;48.408;10.004;2022-08-19T04:41:14;16.70;99.90
1179;DHT22;578;48.408;10.004;2022-08-19T04:43:58;16.60;99.90
1179;DHT22;578;48.408;10.004;2022-08-19T04:46:26;16.60;99.90
1179;DHT22;578;48.408;10.004;2022-08-19T04:48:56;16.70;99.90
1179;DHT22;578;48.408;10.004;2022-08-19T04:51:23;16.70;99.90
1179;DHT22;578;48.408;10.004;2022-08-19T04:53:50;16.70;99.90
1179;DHT22;578;48.408;10.004;2022-08-19T04:56:18;16.80;99.90
1179;DHT22;578;48.408;10.004;2022-08-19T04:58:49;16.80;99.90
1179;DHT22;578;48.408;10.004;2022-08-19T05:01:19;16.80;99.90
1179;DHT22;578;48.408;10.004;2022-08-19T05:03:48;16.70;99.90
1179;DHT22;578;48.408;10.004;2022-08-19T05:06:17;16.80;99.90
1179;DHT22;578;48.408;10.004;2022-08-19T05:08:44;16.80;99.90
1179;DHT22;578;48.408;10.004;2022-08-19T05:11:13;16.90;99.90
1179;DHT22;578;48.408;10.004;2022-08-19T05:13:41;16.90;99.90
1179;DHT22;578;48.408;10.004;2022-08-19T05:16:09;16.80;99.90
1179;DHT22;578;48.408;10.004;2022-08-19T05:18:36;16.90;99.90
1179;DHT22;578;48.408;10.004;2022-08-19T05:21:22;16.90;99.90
1179;DHT22;578;48.408;10.004;2022-08-19T05:24:07;16.90;99.90
1179;DHT22;578;48.408;10.004;2022-08-19T05:26:34;16.80;99.90
1179;DHT22;578;48.408;10.004;2022-08-19T05:29:01;16.80;99.90
1179;DHT22;578;48.408;10.004;2022-08-19T05:31:28;16.80;99.90
1179;DHT22;578;48.408;10.004;2022-08-19T05:33:55;16.90;99.90
1179;DHT22;578;48.408;10.004;2022-08-19T05:36:25;16.90;99.90
1179;DHT22;578;48.408;10.004;2022-08-19T05:38:52;17.00;99.90
1179;DHT22;578;48.408;10.004;2022-08-19T05:41:20;17.10;99.90
1179;DHT22;578;48.408;10.004;2022-08-19T05:43:48;16.90;99.90
1179;DHT22;578;48.408;10.004;2022-08-19T05:46:17;17.00;99.90
1179;DHT22;578;48.408;10.004;2022-08-19T05:48:45;17.00;99.90
1179;DHT22;578;48.408;10.004;2022-08-19T05:51:12;17.00;99.90
1179;DHT22;578;48.408;10.004;2022-08-19T05:53:40;17.00;99.90
1179;DHT22;578;48.408;10.004;2022-08-19T05:56:08;17.00;99.90
1179;DHT22;578;48.408;10.004;2022-08-19T05:58:36;16.80;99.90
1179;DHT22;578;48.408;10.004;2022-08-19T06:01:04;17.00;99.90
1179;DHT22;578;48.408;10.004;2022-08-19T06:03:32;16.90;99.90
1179;DHT22;578;48.408;10.004;2022-08-19T06:06:00;16.90;99.90
1179;DHT22;578;48.408;10.004;2022-08-19T06:08:28;16.90;99.90
1179;DHT22;578;48.408;10.004;2022-08-19T06:10:56;16.80;99.90
1179;DHT22;578;48.408;10.004;2022-08-19T06:13:23;16.80;99.90
1179;DHT22;578;48.408;10.004;2022-08-19T06:15:51;16.80;99.90
1179;DHT22;578;48.408;10.004;2022-08-19T06:18:17;16.80;99.90
1179;DHT22;578;48.408;10.004;2022-08-19T06:20:45;16.90;99.90
1179;DHT22;578;48.408;10.004;2022-08-19T06:23:11;16.80;99.90
1179;DHT22;578;48.408;10.004;2022-08-19T06:25:39;16.80;99.90
1179;DHT22;578;48.408;10.004;2022-08-19T06:28:07;16.80;99.90
1179;DHT22;578;48.408;10.004;2022-08-19T06:30:33;16.90;99.90
1179;DHT22;578;48.408;10.004;2022-08-19T06:33:00;16.80;99.90
1179;DHT22;578;48.408;10.004;2022-08-19T06:35:27;16.80;99.90
1179;DHT22;578;48.408;10.004;2022-08-19T06:37:54;16.70;99.90
1179;DHT22;578;48.408;10.004;2022-08-19T06:40:21;16.80;99.90
1179;DHT22;578;48.408;10.004;2022-08-19T06:42:48;16.90;99.90
1179;DHT22;578;48.408;10.004;2022-08-19T06:45:16;16.70;99.90
1179;DHT22;578;48.408;10.004;2022-08-19T06:47:43;16.80;99.90
1179;DHT22;578;48.408;10.004;2022-08-19T06:50:13;16.80;99.90
1179;DHT22;578;48.408;10.004;2022-08-19T06:52:40;16.70;99.90
1179;DHT22;578;48.408;10.004;2022-08-19T06:55:07;16.90;99.90
1179;DHT22;578;48.408;10.004;2022-08-19T06:57:34;16.80;99.90
1179;DHT22;578;48.408;10.004;2022-08-19T07:00:02;16.70;99.90
1179;DHT22;578;48.408;10.004;2022-08-19T07:02:30;16.70;99.90
1179;DHT22;578;48.408;10.004;2022-08-19T07:04:56;16.70;99.90
1179;DHT22;578;48.408;10.004;2022-08-19T07:07:23;16.80;99.90
1179;DHT22;578;48.408;10.004;2022-08-19T07:09:50;16.80;99.90
1179;DHT22;578;48.408;10.004;2022-08-19T07:12:18;16.80;99.90
1179;DHT22;578;48.408;10.004;2022-08-19T07:14:45;16.90;99.90
1179;DHT22;578;48.408;10.004;2022-08-19T07:17:12;16.80;99.90
1179;DHT22;578;48.408;10.004;2022-08-19T07:19:41;16.70;99.90
1179;DHT22;578;48.408;10.004;2022-08-19T07:22:09;16.90;99.90
1179;DHT22;578;48.408;10.004;2022-08-19T07:24:37;16.80;99.90
1179;DHT22;578;48.408;10.004;2022-08-19T07:27:05;16.80;99.90
1179;DHT22;578;48.408;10.004;2022-08-19T07:29:34;16.90;99.90
1179;DHT22;578;48.408;10.004;2022-08-19T07:32:03;16.80;99.90
1179;DHT22;578;48.408;10.004;2022-08-19T07:34:31;16.70;99.90
1179;DHT22;578;48.408;10.004;2022-08-19T07:37:01;16.80;99.90
1179;DHT22;578;48.408;10.004;2022-08-19T07:39:31;16.80;99.90
1179;DHT22;578;48.408;10.004;2022-08-19T07:42:00;16.80;99.90
1179;DHT22;578;48.408;10.004;2022-08-19T07:44:27;16.90;99.90
1179;DHT22;578;48.408;10.004;2022-08-19T07:46:56;16.80;99.90
1179;DHT22;578;48.408;10.004;2022-08-19T07:49:24;16.80;99.90
1179;DHT22;578;48.408;10.004;2022-08-19T07:51:54;16.90;99.90
1179;DHT22;578;48.408;10.004;2022-08-19T07:54:24;16.80;99.90
1179;DHT22;578;48.408;10.004;2022-08-19T07:56:51;16.70;99.90
1179;DHT22;578;48.408;10.004;2022-08-19T07:59:18;16.80;99.90
1179;DHT22;578;48.408;10.004;2022-08-19T08:01:46;16.80;99.90
1179;DHT22;578;48.408;10.004;2022-08-19T08:04:13;16.80;99.90
1179;DHT22;578;48.408;10.004;2022-08-19T08:06:58;16.70;99.90
1179;DHT22;578;48.408;10.004;2022-08-19T08:09:44;16.70;99.90
1179;DHT22;578;48.408;10.004;2022-08-19T08:12:13;16.70;99.90
1179;DHT22;578;48.408;10.004;2022-08-19T08:14:42;16.70;99.90
1179;DHT22;578;48.408;10.004;2022-08-19T08:17:10;16.60;99.90
1179;DHT22;578;48.408;10.004;2022-08-19T08:19:38;16.70;99.90
1179;DHT22;578;48.408;10.004;2022-08-19T08:22:06;16.70;99.90
1179;DHT22;578;48.408;10.004;2022-08-19T08:24:34;16.70;99.90
1179;DHT22;578;48.408;10.004;2022-08-19T08:27:02;16.70;99.90
1179;DHT22;578;48.408;10.004;2022-08-19T08:29:30;16.70;99.90
1179;DHT22;578;48.408;10.004;2022-08-19T08:31:57;16.60;99.90
1179;DHT22;578;48.408;10.004;2022-08-19T08:34:24;16.60;99.90
1179;DHT22;578;48.408;10.004;2022-08-19T08:36:50;16.70;99.90
1179;DHT22;578;48.408;10.004;2022-08-19T08:39:19;16.70;99.90
1179;DHT22;578;48.408;10.004;2022-08-19T08:41:51;16.70;99.90
1179;DHT22;578;48.408;10.004;2022-08-19T08:44:24;16.70;99.90
1179;DHT22;578;48.408;10.004;2022-08-19T08:46:55;16.70;99.90
1179;DHT22;578;48.408;10.004;2022-08-19T08:49:29;16.60;99.90
1179;DHT22;578;48.408;10.004;2022-08-19T08:52:03;16.60;99.90
1179;DHT22;578;48.408;10.004;2022-08-19T08:54:34;16.70;99.90
1179;DHT22;578;48.408;10.004;2022-08-19T08:57:04;16.70;99.90
1179;DHT22;578;48.408;10.004;2022-08-19T08:59:37;16.70;99.90
1179;DHT22;578;48.408;10.004;2022-08-19T09:02:06;16.80;99.90
1179;DHT22;578;48.408;10.004;2022-08-19T09:04:34;16.80;99.90
1179;DHT22;578;48.408;10.004;2022-08-19T09:07:14;16.70;99.90
1179;DHT22;578;48.408;10.004;2022-08-19T09:09:46;16.90;99.90
1179;DHT22;578;48.408;10.004;2022-08-19T09:12:21;16.90;99.90
1179;DHT22;578;48.408;10.004;2022-08-19T09:14:54;17.00;99.90
1179;DHT22;578;48.408;10.004;2022-08-19T09:17:24;16.90;99.90
1179;DHT22;578;48.408;10.004;2022-08-19T09:19:55;17.00;99.90
1179;DHT22;578;48.408;10.004;2022-08-19T09:22:23;16.90;99.90
1179;DHT22;578;48.408;10.004;2022-08-19T09:24:52;16.90;99.90
1179;DHT22;578;48.408;10.004;2022-08-19T09:27:19;17.00;99.90
1179;DHT22;578;48.408;10.004;2022-08-19T09:29:49;17.00;99.90
1179;DHT22;578;48.408;10.004;2022-08-19T09:32:17;16.90;99.90
1179;DHT22;578;48.408;10.004;2022-08-19T09:34:44;16.80;99.90
1179;DHT22;578;48.408;10.004;2022-08-19T09:37:11;17.00;99.90
1179;DHT22;578;48.408;10.004;2022-08-19T09:39:38;17.10;99.90
1179;DHT22;578;48.408;10.004;2022-08-19T09:42:06;17.10;99.90
1179;DHT22;578;48.408;10.004;2022-08-19T09:44:37;17.20;99.90
1179;DHT22;578;48.408;10.004;2022-08-19T09:47:04;17.20;99.90
1179;DHT22;578;48.408;10.004;2022-08-19T09:49:32;17.20;99.90
1179;DHT22;578;48.408;10.004;2022-08-19T09:51:59;17.30;99.90
1179;DHT22;578;48.408;10.004;2022-08-19T09:54:27;17.10;99.90
1179;DHT22;578;48.408;10.004;2022-08-19T09:56:54;17.40;99.90
1179;DHT22;578;48.408;10.004;2022-08-19T09:59:22;17.40;99.90
1179;DHT22;578;48.408;10.004;2022-08-19T10:01:49;17.50;99.90
1179;DHT22;578;48.408;10.004;2022-08-19T10:04:16;17.60;99.90
1179;DHT22;578;48.408;10.004;2022-08-19T10:06:44;17.60;99.90
1179;DHT22;578;48.408;10.004;2022-08-19T10:09:14;17.50;99.90
1179;DHT22;578;48.408;10.004;2022-08-19T10:11:44;17.40;99.90
1179;DHT22;578;48.408;10.004;2022-08-19T10:14:14;17.50;99.90
1179;DHT22;578;48.408;10.004;2022-08-19T10:16:42;17.50;99.90
1179;DHT22;578;48.408;10.004;2022-08-19T10:19:09;17.50;99.90
1179;DHT22;578;48.408;10.004;2022-08-19T10:21:35;17.50;99.90
1179;DHT22;578;48.408;10.004;2022-08-19T10:24:05;17.50;99.90
1179;DHT22;578;48.408;10.004;2022-08-19T10:26:34;17.40;99.90
1179;DHT22;578;48.408;10.004;2022-08-19T10:29:02;17.30;99.90
1179;DHT22;578;48.408;10.004;2022-08-19T10:31:31;17.40;99.90
1179;DHT22;578;48.408;10.004;2022-08-19T10:33:59;17.30;99.90
1179;DHT22;578;48.408;10.004;2022-08-19T10:36:27;17.40;99.90
1179;DHT22;578;48.408;10.004;2022-08-19T10:38:57;17.50;99.90
1179;DHT22;578;48.408;10.004;2022-08-19T10:41:28;17.50;99.90
1179;DHT22;578;48.408;10.004;2022-08-19T10:43:57;17.30;99.90
1179;DHT22;578;48.408;10.004;2022-08-19T10:46:26;17.40;99.90
1179;DHT22;578;48.408;10.004;2022-08-19T10:48:53;17.50;99.90
1179;DHT22;578;48.408;10.004;2022-08-19T10:51:21;17.30;99.90
1179;DHT22;578;48.408;10.004;2022-08-19T10:54:05;17.30;99.90
1179;DHT22;578;48.408;10.004;2022-08-19T10:56:34;17.30;99.90
1179;DHT22;578;48.408;10.004;2022-08-19T10:59:20;17.30;99.90
1179;DHT22;578;48.408;10.004;2022-08-19T11:01:48;17.20;99.90
1179;DHT22;578;48.408;10.004;2022-08-19T11:04:16;17.30;99.90
1179;DHT22;578;48.408;10.004;2022-08-19T11:06:43;17.20;99.90
1179;DHT22;578;48.408;10.004;2022-08-19T11:09:13;17.20;99.90
1179;DHT22;578;48.408;10.004;2022-08-19T11:11:42;17.00;99.90
1179;DHT22;578;48.408;10.004;2022-08-19T11:14:13;17.00;99.90
1179;DHT22;578;48.408;10.004;2022-08-19T11:16:41;17.10;99.90
1179;DHT22;578;48.408;10.004;2022-08-19T11:19:10;17.20;99.90
1179;DHT22;578;48.408;10.004;2022-08-19T11:21:39;17.00;99.90
1179;DHT22;578;48.408;10.004;2022-08-19T11:24:09;17.00;99.90
1179;DHT22;578;48.408;10.004;2022-08-19T11:26:37;17.00;99.90
1179;DHT22;578;48.408;10.004;2022-08-19T11:29:06;17.00;99.90
1179;DHT22;578;48.408;10.004;2022-08-19T11:31:37;17.00;99.90
1179;DHT22;578;48.408;10.004;2022-08-19T11:34:06;17.00;99.90
1179;DHT22;578;48.408;10.004;2022-08-19T11:36:36;17.10;99.90
1179;DHT22;578;48.408;10.004;2022-08-19T11:39:04;17.10;99.90
1179;DHT22;578;48.408;10.004;2022-08-19T11:41:30;17.10;99.90
1179;DHT22;578;48.408;10.004;2022-08-19T11:43:57;17.10;99.90
1179;DHT22;578;48.408;10.004;2022-08-19T11:46:26;17.10;99.90
1179;DHT22;578;48.408;10.004;2022-08-19T11:48:55;17.20;99.90
1179;DHT22;578;48.408;10.004;2022-08-19T11:51:23;17.30;99.90
1179;DHT22;578;48.408;10.004;2022-08-19T11:53:51;17.30;99.90
1179;DHT22;578;48.408;10.004;2022-08-19T11:56:20;17.40;99.90
1179;DHT22;578;48.408;10.004;2022-08-19T11:58:47;17.40;99.90
1179;DHT22;578;48.408;10.004;2022-08-19T12:01:15;17.50;99.90
1179;DHT22;578;48.408;10.004;2022-08-19T12:03:45;17.50;99.90
1179;DHT22;578;48.408;10.004;2022-08-19T12:06:14;17.60;99.90
1179;DHT22;578;48.408;10.004;2022-08-19T12:08:41;17.60;99.90
1179;DHT22;578;48.408;10.004;2022-08-19T12:11:09;17.50;99.90
1179;DHT22;578;48.408;10.004;2022-08-19T12:13:36;17.40;99.90
1179;DHT22;578;48.408;10.004;2022-08-19T12:16:08;17.50;99.90
1179;DHT22;578;48.408;10.004;2022-08-19T12:18:36;17.30;99.90
1179;DHT22;578;48.408;10.004;2022-08-19T12:21:04;17.60;99.90
1179;DHT22;578;48.408;10.004;2022-08-19T12:23:31;17.50;99.90
1179;DHT22;578;48.408;10.004;2022-08-19T12:25:57;17.60;99.90
1179;DHT22;578;48.408;10.004;2022-08-19T12:28:25;17.40;99.90
1179;DHT22;578;48.408;10.004;2022-08-19T12:30:52;17.40;99.90
1179;DHT22;578;48.408;10.004;2022-08-19T12:33:19;17.40;99.90
1179;DHT22;578;48.408;10.004;2022-08-19T12:35:49;17.50;99.90
1179;DHT22;578;48.408;10.004;2022-08-19T12:38:18;17.50;99.90
1179;DHT22;578;48.408;10.004;2022-08-19T12:40:46;17.50;99.90
1179;DHT22;578;48.408;10.004;2022-08-19T12:43:13;17.60;99.90
1179;DHT22;578;48.408;10.004;2022-08-19T12:45:41;17.70;99.90
1179;DHT22;578;48.408;10.004;2022-08-19T12:48:08;17.60;99.90
1179;DHT22;578;48.408;10.004;2022-08-19T12:50:35;17.70;99.90
1179;DHT22;578;48.408;10.004;2022-08-19T12:53:01;17.70;99.90
1179;DHT22;578;48.408;10.004;2022-08-19T12:55:29;17.70;99.90
1179;DHT22;578;48.408;10.004;2022-08-19T12:57:56;17.80;99.90
1179;DHT22;578;48.408;10.004;2022-08-19T13:00:23;17.80;99.90
1179;DHT22;578;48.408;10.004;2022-08-19T13:02:51;17.70;99.90
1179;DHT22;578;48.408;10.004;2022-08-19T13:05:20;17.80;99.90
1179;DHT22;578;48.408;10.004;2022-08-19T13:07:48;17.60;99.90
1179;DHT22;578;48.408;10.004;2022-08-19T13:10:18;17.70;99.90
1179;DHT22;578;48.408;10.004;2022-08-19T13:12:49;17.70;99.90
1179;DHT22;578;48.408;10.004;2022-08-19T13:15:18;17.70;99.90
1179;DHT22;578;48.408;10.004;2022-08-19T13:17:46;17.70;99.90
1179;DHT22;578;48.408;10.004;2022-08-19T13:20:14;17.60;99.90
1179;DHT22;578;48.408;10.004;2022-08-19T13:22:41;17.80;99.90
1179;DHT22;578;48.408;10.004;2022-08-19T13:25:10;17.60;99.90
1179;DHT22;578;48.408;10.004;2022-08-19T13:27:38;17.60;99.90
1179;DHT22;578;48.408;10.004;2022-08-19T13:30:08;17.60;99.90
1179;DHT22;578;48.408;10.004;2022-08-19T13:32:53;17.60;99.90
1179;DHT22;578;48.408;10.004;2022-08-19T13:35:42;17.60;99.90
1179;DHT22;578;48.408;10.004;2022-08-19T13:38:10;17.60;99.90
1179;DHT22;578;48.408;10.004;2022-08-19T13:40:38;17.60;99.90
1179;DHT22;578;48.408;10.004;2022-08-19T13:43:05;17.50;99.90
1179;DHT22;578;48.408;10.004;2022-08-19T13:45:33;17.40;99.90
1179;DHT22;578;48.408;10.004;2022-08-19T13:48:01;17.50;99.90
1179;DHT22;578;48.408;10.004;2022-08-19T13:50:32;17.50;99.90
1179;DHT22;578;48.408;10.004;2022-08-19T13:53:00;17.50;99.90
1179;DHT22;578;48.408;10.004;2022-08-19T13:55:27;17.50;99.90
1179;DHT22;578;48.408;10.004;2022-08-19T13:57:55;17.50;99.90
1179;DHT22;578;48.408;10.004;2022-08-19T14:00:28;17.50;99.90
1179;DHT22;578;48.408;10.004;2022-08-19T14:02:57;17.60;99.90
1179;DHT22;578;48.408;10.004;2022-08-19T14:05:25;17.60;99.90
1179;DHT22;578;48.408;10.004;2022-08-19T14:07:52;17.50;99.90
1179;DHT22;578;48.408;10.004;2022-08-19T14:10:20;17.50;99.90
1179;DHT22;578;48.408;10.004;2022-08-19T14:12:47;17.50;99.90
1179;DHT22;578;48.408;10.004;2022-08-19T14:15:15;17.40;99.90
1179;DHT22;578;48.408;10.004;2022-08-19T14:17:43;17.50;99.90
1179;DHT22;578;48.408;10.004;2022-08-19T14:20:14;17.40;99.90
1179;DHT22;578;48.408;10.004;2022-08-19T14:22:42;17.30;99.90
1179;DHT22;578;48.408;10.004;2022-08-19T14:25:11;17.40;99.90
1179;DHT22;578;48.408;10.004;2022-08-19T14:27:39;17.40;99.90
1179;DHT22;578;48.408;10.004;2022-08-19T14:30:10;17.50;99.90
1179;DHT22;578;48.408;10.004;2022-08-19T14:32:37;17.40;99.90
1179;DHT22;578;48.408;10.004;2022-08-19T14:35:05;17.40;99.90
1179;DHT22;578;48.408;10.004;2022-08-19T14:37:34;17.40;99.90
1179;DHT22;578;48.408;10.004;2022-08-19T14:40:03;17.40;99.90
1179;DHT22;578;48.408;10.004;2022-08-19T14:42:30;17.50;99.90
1179;DHT22;578;48.408;10.004;2022-08-19T14:44:57;17.40;99.90
1179;DHT22;578;48.408;10.004;2022-08-19T14:47:25;17.40;99.90
1179;DHT22;578;48.408;10.004;2022-08-19T14:49:52;17.40;99.90
1179;DHT22;578;48.408;10.004;2022-08-19T14:52:19;17.40;99.90
1179;DHT22;578;48.408;10.004;2022-08-19T14:54:47;17.40;99.90
1179;DHT22;578;48.408;10.004;2022-08-19T14:57:14;17.30;99.90
1179;DHT22;578;48.408;10.004;2022-08-19T14:59:41;17.40;99.90
1179;DHT22;578;48.408;10.004;2022-08-19T15:02:08;17.40;99.90
1179;DHT22;578;48.408;10.004;2022-08-19T15:04:35;17.40;99.90
1179;DHT22;578;48.408;10.004;2022-08-19T15:07:02;17.40;99.90
1179;DHT22;578;48.408;10.004;2022-08-19T15:09:29;17.40;99.90
1179;DHT22;578;48.408;10.004;2022-08-19T15:11:57;17.40;99.90
1179;DHT22;578;48.408;10.004;2022-08-19T15:14:25;17.40;99.90
1179;DHT22;578;48.408;10.004;2022-08-19T15:16:52;17.40;99.90
1179;DHT22;578;48.408;10.004;2022-08-19T15:19:19;17.50;99.90
1179;DHT22;578;48.408;10.004;2022-08-19T15:21:46;17.50;99.90
1179;DHT22;578;48.408;10.004;2022-08-19T15:24:13;17.50;99.90
1179;DHT22;578;48.408;10.004;2022-08-19T15:26:40;17.50;99.90
1179;DHT22;578;48.408;10.004;2022-08-19T15:29:09;17.50;99.90
1179;DHT22;578;48.408;10.004;2022-08-19T15:31:39;17.50;99.90
1179;DHT22;578;48.408;10.004;2022-08-19T15:34:06;17.50;99.90
1179;DHT22;578;48.408;10.004;2022-08-19T15:36:35;17.60;99.90
1179;DHT22;578;48.408;10.004;2022-08-19T15:39:02;17.70;99.90
1179;DHT22;578;48.408;10.004;2022-08-19T15:41:30;17.70;99.90
1179;DHT22;578;48.408;10.004;2022-08-19T15:43:59;17.80;99.90
1179;DHT22;578;48.408;10.004;2022-08-19T15:46:31;17.70;99.90
1179;DHT22;578;48.408;10.004;2022-08-19T15:48:58;17.70;99.90
1179;DHT22;578;48.408;10.004;2022-08-19T15:51:27;17.80;99.90
1179;DHT22;578;48.408;10.004;2022-08-19T15:53:55;17.70;99.90
1179;DHT22;578;48.408;10.004;2022-08-19T15:56:22;17.80;99.90
1179;DHT22;578;48.408;10.004;2022-08-19T15:58:49;17.80;99.90
1179;DHT22;578;48.408;10.004;2022-08-19T16:01:34;17.70;99.90
1179;DHT22;578;48.408;10.004;2022-08-19T16:04:18;17.70;99.90
1179;DHT22;578;48.408;10.004;2022-08-19T16:07:03;17.70;99.90
1179;DHT22;578;48.408;10.004;2022-08-19T16:09:31;17.70;99.90
1179;DHT22;578;48.408;10.004;2022-08-19T16:12:01;17.70;99.90